sensor_id;sensor_type;location;lat;lon;timestamp;P1;durP1;ratioP1;P2;durP2;ratioP2
41829;SDS011;38614;43.472;23.936;2023-02-23T00:00:29;16.10;;;6.03;;
41829;SDS011;38614;43.472;23.936;2023-02-23T00:03:19;6.20;;;2.70;;
41829;SDS011;38614;43.472;23.936;2023-02-23T00:06:07;6.30;;;3.63;;
41829;SDS011;38614;43.472;23.936;2023-02-23T00:08:58;14.52;;;8.07;;
41829;SDS011;38614;43.472;23.936;2023-02-23T00:11:48;10.75;;;6.15;;
41829;SDS011;38614;43.472;23.936;2023-02-23T00:14:40;19.20;;;5.72;;
41829;SDS011;38614;43.472;23.936;2023-02-23T00:17:27;12.27;;;5.75;;
41829;SDS011;38614;43.472;23.936;2023-02-23T00:20:17;11.82;;;6.03;;
41829;SDS011;38614;43.472;23.936;2023-02-23T00:23:11;14.82;;;5.82;;
41829;SDS011;38614;43.472;23.936;2023-02-23T00:25:58;9.30;;;4.97;;
41829;SDS011;38614;43.472;23.936;2023-02-23T00:28:53;12.73;;;6.30;;
41829;SDS011;38614;43.472;23.936;2023-02-23T00:31:41;10.80;;;6.57;;
41829;SDS011;38614;43.472;23.936;2023-02-23T00:34:31;10.90;;;5.22;;
41829;SDS011;38614;43.472;23.936;2023-02-23T00:37:22;12.05;;;5.93;;
41829;SDS011;38614;43.472;23.936;2023-02-23T00:40:10;10.57;;;7.03;;
41829;SDS011;38614;43.472;23.936;2023-02-23T00:43:00;13.98;;;7.40;;
41829;SDS011;38614;43.472;23.936;2023-02-23T00:45:48;7.55;;;5.28;;
41829;SDS011;38614;43.472;23.936;2023-02-23T00:48:36;8.85;;;4.00;;
41829;SDS011;38614;43.472;23.936;2023-02-23T00:51:25;9.32;;;4.65;;
41829;SDS011;38614;43.472;23.936;2023-02-23T00:54:18;9.73;;;4.22;;
41829;SDS011;38614;43.472;23.936;2023-02-23T00:57:06;14.30;;;5.80;;
41829;SDS011;38614;43.472;23.936;2023-02-23T00:59:57;9.15;;;4.40;;
41829;SDS011;38614;43.472;23.936;2023-02-23T01:02:48;10.02;;;3.95;;
41829;SDS011;38614;43.472;23.936;2023-02-23T01:05:36;11.52;;;5.75;;
41829;SDS011;38614;43.472;23.936;2023-02-23T01:08:24;15.88;;;7.32;;
41829;SDS011;38614;43.472;23.936;2023-02-23T01:11:14;14.38;;;7.47;;
41829;SDS011;38614;43.472;23.936;2023-02-23T01:14:06;11.93;;;6.07;;
41829;SDS011;38614;43.472;23.936;2023-02-23T01:16:54;10.65;;;6.00;;
41829;SDS011;38614;43.472;23.936;2023-02-23T01:19:42;15.43;;;5.45;;
41829;SDS011;38614;43.472;23.936;2023-02-23T01:22:30;9.32;;;5.07;;
41829;SDS011;38614;43.472;23.936;2023-02-23T01:25:18;8.95;;;4.82;;
41829;SDS011;38614;43.472;23.936;2023-02-23T01:28:05;9.73;;;5.70;;
41829;SDS011;38614;43.472;23.936;2023-02-23T01:30:56;14.82;;;6.10;;
41829;SDS011;38614;43.472;23.936;2023-02-23T01:33:47;13.52;;;7.15;;
41829;SDS011;38614;43.472;23.936;2023-02-23T01:36:40;18.38;;;9.38;;
41829;SDS011;38614;43.472;23.936;2023-02-23T01:39:29;16.17;;;10.23;;
41829;SDS011;38614;43.472;23.936;2023-02-23T01:42:18;16.50;;;9.55;;
41829;SDS011;38614;43.472;23.936;2023-02-23T01:45:52;12.90;;;7.05;;
41829;SDS011;38614;43.472;23.936;2023-02-23T01:48:27;19.55;;;9.13;;
41829;SDS011;38614;43.472;23.936;2023-02-23T01:51:20;17.20;;;6.70;;
41829;SDS011;38614;43.472;23.936;2023-02-23T01:54:17;16.73;;;6.20;;
41829;SDS011;38614;43.472;23.936;2023-02-23T01:57:09;20.70;;;7.90;;
41829;SDS011;38614;43.472;23.936;2023-02-23T01:59:59;24.45;;;10.82;;
41829;SDS011;38614;43.472;23.936;2023-02-23T02:02:59;32.47;;;13.73;;
41829;SDS011;38614;43.472;23.936;2023-02-23T02:05:54;27.63;;;13.80;;
41829;SDS011;38614;43.472;23.936;2023-02-23T02:08:47;25.85;;;9.90;;
41829;SDS011;38614;43.472;23.936;2023-02-23T02:11:40;19.42;;;8.90;;
41829;SDS011;38614;43.472;23.936;2023-02-23T02:14:30;18.13;;;8.30;;
41829;SDS011;38614;43.472;23.936;2023-02-23T02:17:25;16.23;;;7.03;;
41829;SDS011;38614;43.472;23.936;2023-02-23T02:36:12;21.67;;;8.33;;
41829;SDS011;38614;43.472;23.936;2023-02-23T02:39:14;16.88;;;8.70;;
41829;SDS011;38614;43.472;23.936;2023-02-23T02:42:32;25.95;;;11.20;;
41829;SDS011;38614;43.472;23.936;2023-02-23T02:48:36;38.53;;;15.13;;
41829;SDS011;38614;43.472;23.936;2023-02-23T02:51:50;44.05;;;22.90;;
41829;SDS011;38614;43.472;23.936;2023-02-23T02:54:55;40.88;;;20.52;;
41829;SDS011;38614;43.472;23.936;2023-02-23T02:57:56;24.42;;;11.80;;
41829;SDS011;38614;43.472;23.936;2023-02-23T03:00:46;27.45;;;12.00;;
41829;SDS011;38614;43.472;23.936;2023-02-23T03:04:20;30.02;;;11.23;;
41829;SDS011;38614;43.472;23.936;2023-02-23T03:11:19;16.75;;;7.60;;
41829;SDS011;38614;43.472;23.936;2023-02-23T03:14:28;16.55;;;7.82;;
41829;SDS011;38614;43.472;23.936;2023-02-23T03:21:05;21.50;;;8.23;;
41829;SDS011;38614;43.472;23.936;2023-02-23T03:24:27;23.67;;;11.73;;
41829;SDS011;38614;43.472;23.936;2023-02-23T03:30:56;13.18;;;6.38;;
41829;SDS011;38614;43.472;23.936;2023-02-23T03:34:30;12.85;;;6.70;;
41829;SDS011;38614;43.472;23.936;2023-02-23T03:37:53;8.38;;;4.88;;
41829;SDS011;38614;43.472;23.936;2023-02-23T03:41:08;18.65;;;11.40;;
41829;SDS011;38614;43.472;23.936;2023-02-23T03:44:23;13.95;;;9.10;;
41829;SDS011;38614;43.472;23.936;2023-02-23T03:47:36;15.15;;;7.32;;
41829;SDS011;38614;43.472;23.936;2023-02-23T03:50:46;17.60;;;9.60;;
41829;SDS011;38614;43.472;23.936;2023-02-23T03:54:16;21.40;;;8.73;;
41829;SDS011;38614;43.472;23.936;2023-02-23T03:57:30;11.68;;;5.90;;
41829;SDS011;38614;43.472;23.936;2023-02-23T04:00:41;12.32;;;5.82;;
41829;SDS011;38614;43.472;23.936;2023-02-23T04:03:51;14.20;;;6.82;;
41829;SDS011;38614;43.472;23.936;2023-02-23T04:07:19;18.40;;;6.80;;
41829;SDS011;38614;43.472;23.936;2023-02-23T04:10:26;19.23;;;7.95;;
41829;SDS011;38614;43.472;23.936;2023-02-23T04:13:33;14.95;;;6.10;;
41829;SDS011;38614;43.472;23.936;2023-02-23T04:16:24;12.35;;;6.35;;
41829;SDS011;38614;43.472;23.936;2023-02-23T04:19:19;12.52;;;6.60;;
41829;SDS011;38614;43.472;23.936;2023-02-23T04:22:07;11.18;;;6.85;;
41829;SDS011;38614;43.472;23.936;2023-02-23T04:24:55;12.20;;;7.15;;
41829;SDS011;38614;43.472;23.936;2023-02-23T04:27:43;13.40;;;7.50;;
41829;SDS011;38614;43.472;23.936;2023-02-23T04:30:31;12.82;;;8.25;;
41829;SDS011;38614;43.472;23.936;2023-02-23T04:33:19;19.48;;;6.82;;
41829;SDS011;38614;43.472;23.936;2023-02-23T04:36:08;10.25;;;5.63;;
41829;SDS011;38614;43.472;23.936;2023-02-23T04:38:56;12.00;;;6.30;;
41829;SDS011;38614;43.472;23.936;2023-02-23T04:41:45;18.08;;;8.70;;
41829;SDS011;38614;43.472;23.936;2023-02-23T04:44:48;12.50;;;6.80;;
41829;SDS011;38614;43.472;23.936;2023-02-23T04:47:36;16.92;;;7.45;;
41829;SDS011;38614;43.472;23.936;2023-02-23T04:50:32;20.60;;;7.88;;
41829;SDS011;38614;43.472;23.936;2023-02-23T04:53:20;15.40;;;7.82;;
41829;SDS011;38614;43.472;23.936;2023-02-23T04:56:08;20.38;;;8.60;;
41829;SDS011;38614;43.472;23.936;2023-02-23T04:58:57;21.52;;;8.02;;
41829;SDS011;38614;43.472;23.936;2023-02-23T05:01:46;21.60;;;8.80;;
41829;SDS011;38614;43.472;23.936;2023-02-23T05:04:34;22.02;;;8.50;;
41829;SDS011;38614;43.472;23.936;2023-02-23T05:07:22;22.05;;;10.90;;
41829;SDS011;38614;43.472;23.936;2023-02-23T05:10:09;32.10;;;10.98;;
41829;SDS011;38614;43.472;23.936;2023-02-23T05:12:57;38.20;;;14.82;;
41829;SDS011;38614;43.472;23.936;2023-02-23T05:15:47;33.63;;;17.00;;
41829;SDS011;38614;43.472;23.936;2023-02-23T05:18:42;30.92;;;14.52;;
41829;SDS011;38614;43.472;23.936;2023-02-23T05:21:30;32.60;;;18.13;;
41829;SDS011;38614;43.472;23.936;2023-02-23T05:24:18;46.40;;;19.85;;
41829;SDS011;38614;43.472;23.936;2023-02-23T05:27:06;45.13;;;18.10;;
41829;SDS011;38614;43.472;23.936;2023-02-23T05:29:55;46.20;;;20.63;;
41829;SDS011;38614;43.472;23.936;2023-02-23T05:32:43;55.15;;;20.15;;
41829;SDS011;38614;43.472;23.936;2023-02-23T05:35:31;65.57;;;19.40;;
41829;SDS011;38614;43.472;23.936;2023-02-23T05:38:19;37.83;;;18.55;;
41829;SDS011;38614;43.472;23.936;2023-02-23T05:41:08;42.13;;;18.13;;
41829;SDS011;38614;43.472;23.936;2023-02-23T05:43:57;51.08;;;20.05;;
41829;SDS011;38614;43.472;23.936;2023-02-23T05:46:45;21.80;;;8.88;;
41829;SDS011;38614;43.472;23.936;2023-02-23T05:49:35;14.75;;;6.03;;
41829;SDS011;38614;43.472;23.936;2023-02-23T05:52:23;17.08;;;7.55;;
41829;SDS011;38614;43.472;23.936;2023-02-23T05:55:11;11.63;;;5.70;;
41829;SDS011;38614;43.472;23.936;2023-02-23T05:57:59;11.50;;;6.43;;
41829;SDS011;38614;43.472;23.936;2023-02-23T06:00:49;9.85;;;6.45;;
41829;SDS011;38614;43.472;23.936;2023-02-23T06:03:37;15.73;;;6.85;;
41829;SDS011;38614;43.472;23.936;2023-02-23T06:06:25;12.10;;;6.65;;
41829;SDS011;38614;43.472;23.936;2023-02-23T06:09:14;10.95;;;5.35;;
41829;SDS011;38614;43.472;23.936;2023-02-23T06:12:02;10.80;;;6.47;;
41829;SDS011;38614;43.472;23.936;2023-02-23T06:14:50;15.73;;;7.35;;
41829;SDS011;38614;43.472;23.936;2023-02-23T06:17:37;12.20;;;7.53;;
41829;SDS011;38614;43.472;23.936;2023-02-23T06:20:25;17.70;;;6.72;;
41829;SDS011;38614;43.472;23.936;2023-02-23T06:23:13;17.33;;;7.35;;
41829;SDS011;38614;43.472;23.936;2023-02-23T06:26:02;14.55;;;6.47;;
41829;SDS011;38614;43.472;23.936;2023-02-23T06:28:54;22.70;;;9.30;;
41829;SDS011;38614;43.472;23.936;2023-02-23T06:31:42;15.25;;;7.45;;
41829;SDS011;38614;43.472;23.936;2023-02-23T06:34:30;13.00;;;6.97;;
41829;SDS011;38614;43.472;23.936;2023-02-23T06:37:21;16.73;;;9.15;;
41829;SDS011;38614;43.472;23.936;2023-02-23T06:40:08;17.02;;;6.57;;
41829;SDS011;38614;43.472;23.936;2023-02-23T06:42:56;14.07;;;7.50;;
41829;SDS011;38614;43.472;23.936;2023-02-23T06:45:45;17.02;;;8.68;;
41829;SDS011;38614;43.472;23.936;2023-02-23T06:48:33;13.02;;;6.72;;
41829;SDS011;38614;43.472;23.936;2023-02-23T06:51:22;19.38;;;8.57;;
41829;SDS011;38614;43.472;23.936;2023-02-23T06:54:10;16.65;;;7.88;;
41829;SDS011;38614;43.472;23.936;2023-02-23T06:56:58;17.15;;;7.25;;
41829;SDS011;38614;43.472;23.936;2023-02-23T06:59:46;13.57;;;8.10;;
41829;SDS011;38614;43.472;23.936;2023-02-23T07:02:34;14.20;;;8.77;;
41829;SDS011;38614;43.472;23.936;2023-02-23T07:05:23;30.63;;;8.77;;
41829;SDS011;38614;43.472;23.936;2023-02-23T07:08:11;17.67;;;8.48;;
41829;SDS011;38614;43.472;23.936;2023-02-23T07:11:08;15.13;;;8.20;;
41829;SDS011;38614;43.472;23.936;2023-02-23T07:13:59;13.20;;;7.43;;
41829;SDS011;38614;43.472;23.936;2023-02-23T07:16:50;16.75;;;7.95;;
41829;SDS011;38614;43.472;23.936;2023-02-23T07:19:41;14.15;;;8.00;;
41829;SDS011;38614;43.472;23.936;2023-02-23T07:22:45;28.23;;;8.15;;
41829;SDS011;38614;43.472;23.936;2023-02-23T07:25:33;18.08;;;9.02;;
41829;SDS011;38614;43.472;23.936;2023-02-23T07:28:24;20.23;;;8.10;;
41829;SDS011;38614;43.472;23.936;2023-02-23T07:31:13;20.17;;;8.93;;
41829;SDS011;38614;43.472;23.936;2023-02-23T07:34:04;19.00;;;8.57;;
41829;SDS011;38614;43.472;23.936;2023-02-23T07:36:54;22.25;;;10.65;;
41829;SDS011;38614;43.472;23.936;2023-02-23T07:39:41;28.90;;;14.32;;
41829;SDS011;38614;43.472;23.936;2023-02-23T07:42:32;26.33;;;11.38;;
41829;SDS011;38614;43.472;23.936;2023-02-23T07:45:20;17.30;;;9.32;;
41829;SDS011;38614;43.472;23.936;2023-02-23T07:48:08;15.85;;;8.25;;
41829;SDS011;38614;43.472;23.936;2023-02-23T07:50:56;18.08;;;8.25;;
41829;SDS011;38614;43.472;23.936;2023-02-23T07:53:46;27.92;;;10.25;;
41829;SDS011;38614;43.472;23.936;2023-02-23T07:56:38;17.57;;;8.93;;
41829;SDS011;38614;43.472;23.936;2023-02-23T07:59:31;14.48;;;7.22;;
41829;SDS011;38614;43.472;23.936;2023-02-23T08:02:24;24.27;;;8.95;;
41829;SDS011;38614;43.472;23.936;2023-02-23T08:05:22;18.20;;;7.90;;
41829;SDS011;38614;43.472;23.936;2023-02-23T08:08:15;19.88;;;8.13;;
41829;SDS011;38614;43.472;23.936;2023-02-23T08:11:04;18.40;;;8.02;;
41829;SDS011;38614;43.472;23.936;2023-02-23T08:13:54;15.85;;;9.15;;
41829;SDS011;38614;43.472;23.936;2023-02-23T08:16:48;17.02;;;8.32;;
41829;SDS011;38614;43.472;23.936;2023-02-23T08:19:37;13.55;;;7.93;;
41829;SDS011;38614;43.472;23.936;2023-02-23T08:22:26;19.05;;;8.68;;
41829;SDS011;38614;43.472;23.936;2023-02-23T08:25:15;15.40;;;7.80;;
41829;SDS011;38614;43.472;23.936;2023-02-23T08:28:09;18.37;;;9.47;;
41829;SDS011;38614;43.472;23.936;2023-02-23T08:30:56;18.90;;;8.80;;
41829;SDS011;38614;43.472;23.936;2023-02-23T08:33:45;12.73;;;7.38;;
41829;SDS011;38614;43.472;23.936;2023-02-23T08:36:36;11.50;;;7.45;;
41829;SDS011;38614;43.472;23.936;2023-02-23T08:39:42;17.58;;;8.18;;
41829;SDS011;38614;43.472;23.936;2023-02-23T08:42:30;14.77;;;7.75;;
41829;SDS011;38614;43.472;23.936;2023-02-23T08:45:19;12.27;;;7.38;;
41829;SDS011;38614;43.472;23.936;2023-02-23T08:48:07;10.63;;;7.47;;
41829;SDS011;38614;43.472;23.936;2023-02-23T08:50:55;12.38;;;7.20;;
41829;SDS011;38614;43.472;23.936;2023-02-23T08:53:44;16.08;;;7.35;;
41829;SDS011;38614;43.472;23.936;2023-02-23T08:56:34;12.85;;;6.53;;
41829;SDS011;38614;43.472;23.936;2023-02-23T08:59:22;15.25;;;8.18;;
41829;SDS011;38614;43.472;23.936;2023-02-23T09:02:11;18.90;;;8.40;;
41829;SDS011;38614;43.472;23.936;2023-02-23T09:05:00;11.07;;;7.15;;
41829;SDS011;38614;43.472;23.936;2023-02-23T09:07:47;15.48;;;7.40;;
41829;SDS011;38614;43.472;23.936;2023-02-23T09:10:38;13.70;;;7.60;;
41829;SDS011;38614;43.472;23.936;2023-02-23T09:13:26;13.70;;;7.28;;
41829;SDS011;38614;43.472;23.936;2023-02-23T09:16:17;20.27;;;7.03;;
41829;SDS011;38614;43.472;23.936;2023-02-23T09:19:05;15.63;;;7.00;;
41829;SDS011;38614;43.472;23.936;2023-02-23T09:21:52;19.95;;;7.72;;
41829;SDS011;38614;43.472;23.936;2023-02-23T09:24:42;13.60;;;6.20;;
41829;SDS011;38614;43.472;23.936;2023-02-23T09:27:31;14.77;;;7.15;;
41829;SDS011;38614;43.472;23.936;2023-02-23T09:30:26;17.73;;;8.07;;
41829;SDS011;38614;43.472;23.936;2023-02-23T09:33:14;13.32;;;7.18;;
41829;SDS011;38614;43.472;23.936;2023-02-23T09:36:07;12.95;;;7.70;;
41829;SDS011;38614;43.472;23.936;2023-02-23T09:38:58;19.65;;;7.97;;
41829;SDS011;38614;43.472;23.936;2023-02-23T09:41:56;9.93;;;6.57;;
41829;SDS011;38614;43.472;23.936;2023-02-23T09:45:18;11.27;;;6.47;;
41829;SDS011;38614;43.472;23.936;2023-02-23T09:48:21;17.00;;;7.20;;
41829;SDS011;38614;43.472;23.936;2023-02-23T09:51:15;12.23;;;7.20;;
41829;SDS011;38614;43.472;23.936;2023-02-23T09:54:09;12.00;;;7.40;;
41829;SDS011;38614;43.472;23.936;2023-02-23T09:57:00;16.63;;;6.93;;
41829;SDS011;38614;43.472;23.936;2023-02-23T09:59:50;19.52;;;6.65;;
41829;SDS011;38614;43.472;23.936;2023-02-23T10:02:37;15.73;;;6.60;;
41829;SDS011;38614;43.472;23.936;2023-02-23T10:05:51;14.93;;;6.18;;
41829;SDS011;38614;43.472;23.936;2023-02-23T10:15:01;14.65;;;7.18;;
41829;SDS011;38614;43.472;23.936;2023-02-23T10:20:55;13.05;;;6.88;;
41829;SDS011;38614;43.472;23.936;2023-02-23T10:24:09;13.07;;;6.50;;
41829;SDS011;38614;43.472;23.936;2023-02-23T10:27:21;14.95;;;7.07;;
41829;SDS011;38614;43.472;23.936;2023-02-23T10:30:22;13.75;;;6.85;;
41829;SDS011;38614;43.472;23.936;2023-02-23T10:36:16;17.20;;;7.10;;
41829;SDS011;38614;43.472;23.936;2023-02-23T10:39:10;12.27;;;5.35;;
41829;SDS011;38614;43.472;23.936;2023-02-23T10:42:03;15.02;;;6.38;;
41829;SDS011;38614;43.472;23.936;2023-02-23T10:44:53;14.68;;;7.82;;
41829;SDS011;38614;43.472;23.936;2023-02-23T10:47:42;13.40;;;7.07;;
41829;SDS011;38614;43.472;23.936;2023-02-23T10:50:32;15.35;;;5.93;;
41829;SDS011;38614;43.472;23.936;2023-02-23T10:53:25;11.50;;;6.20;;
41829;SDS011;38614;43.472;23.936;2023-02-23T10:56:14;13.98;;;6.05;;
41829;SDS011;38614;43.472;23.936;2023-02-23T10:59:05;9.43;;;5.45;;
41829;SDS011;38614;43.472;23.936;2023-02-23T11:01:55;16.70;;;5.70;;
41829;SDS011;38614;43.472;23.936;2023-02-23T11:04:51;14.98;;;5.30;;
41829;SDS011;38614;43.472;23.936;2023-02-23T11:07:40;6.38;;;4.20;;
41829;SDS011;38614;43.472;23.936;2023-02-23T11:10:29;17.20;;;5.10;;
41829;SDS011;38614;43.472;23.936;2023-02-23T11:13:21;14.02;;;4.65;;
41829;SDS011;38614;43.472;23.936;2023-02-23T11:16:22;13.90;;;5.38;;
41829;SDS011;38614;43.472;23.936;2023-02-23T11:19:46;12.13;;;5.18;;
41829;SDS011;38614;43.472;23.936;2023-02-23T11:22:30;13.40;;;5.00;;
41829;SDS011;38614;43.472;23.936;2023-02-23T11:25:24;12.35;;;5.60;;
41829;SDS011;38614;43.472;23.936;2023-02-23T11:28:40;8.68;;;4.57;;
41829;SDS011;38614;43.472;23.936;2023-02-23T11:31:30;9.20;;;5.35;;
41829;SDS011;38614;43.472;23.936;2023-02-23T11:34:27;10.30;;;4.53;;
41829;SDS011;38614;43.472;23.936;2023-02-23T11:43:14;12.82;;;6.15;;
41829;SDS011;38614;43.472;23.936;2023-02-23T11:46:05;8.88;;;5.90;;
41829;SDS011;38614;43.472;23.936;2023-02-23T11:51:53;12.20;;;4.97;;
41829;SDS011;38614;43.472;23.936;2023-02-23T11:54:48;12.10;;;4.15;;
41829;SDS011;38614;43.472;23.936;2023-02-23T11:57:50;10.43;;;4.95;;
41829;SDS011;38614;43.472;23.936;2023-02-23T12:00:39;10.80;;;5.63;;
41829;SDS011;38614;43.472;23.936;2023-02-23T12:03:28;14.35;;;4.95;;
41829;SDS011;38614;43.472;23.936;2023-02-23T12:06:30;11.50;;;4.90;;
41829;SDS011;38614;43.472;23.936;2023-02-23T12:09:25;8.57;;;4.40;;
41829;SDS011;38614;43.472;23.936;2023-02-23T12:12:17;8.65;;;4.75;;
41829;SDS011;38614;43.472;23.936;2023-02-23T12:15:21;6.78;;;4.50;;
41829;SDS011;38614;43.472;23.936;2023-02-23T12:18:26;9.50;;;4.53;;
41829;SDS011;38614;43.472;23.936;2023-02-23T12:24:31;13.40;;;4.43;;
41829;SDS011;38614;43.472;23.936;2023-02-23T12:27:47;7.70;;;4.30;;
41829;SDS011;38614;43.472;23.936;2023-02-23T12:40:34;9.02;;;4.78;;
41829;SDS011;38614;43.472;23.936;2023-02-23T12:43:31;13.02;;;5.22;;
41829;SDS011;38614;43.472;23.936;2023-02-23T12:46:38;8.63;;;4.68;;
41829;SDS011;38614;43.472;23.936;2023-02-23T12:49:40;10.35;;;4.22;;
41829;SDS011;38614;43.472;23.936;2023-02-23T12:52:35;9.13;;;5.38;;
41829;SDS011;38614;43.472;23.936;2023-02-23T12:55:53;13.75;;;4.88;;
41829;SDS011;38614;43.472;23.936;2023-02-23T13:05:36;8.52;;;4.45;;
41829;SDS011;38614;43.472;23.936;2023-02-23T13:21:11;8.50;;;4.97;;
41829;SDS011;38614;43.472;23.936;2023-02-23T13:30:13;6.25;;;4.20;;
41829;SDS011;38614;43.472;23.936;2023-02-23T13:33:11;7.80;;;3.67;;
41829;SDS011;38614;43.472;23.936;2023-02-23T13:36:15;14.40;;;4.22;;
41829;SDS011;38614;43.472;23.936;2023-02-23T13:42:35;9.18;;;3.63;;
41829;SDS011;38614;43.472;23.936;2023-02-23T13:51:48;16.33;;;4.15;;
41829;SDS011;38614;43.472;23.936;2023-02-23T13:54:53;7.20;;;3.50;;
41829;SDS011;38614;43.472;23.936;2023-02-23T13:57:45;6.18;;;3.13;;
41829;SDS011;38614;43.472;23.936;2023-02-23T14:00:32;10.50;;;3.33;;
41829;SDS011;38614;43.472;23.936;2023-02-23T14:03:25;9.10;;;3.60;;
41829;SDS011;38614;43.472;23.936;2023-02-23T14:06:17;4.20;;;2.88;;
41829;SDS011;38614;43.472;23.936;2023-02-23T14:09:10;8.63;;;3.05;;
41829;SDS011;38614;43.472;23.936;2023-02-23T14:33:32;7.93;;;3.85;;
41829;SDS011;38614;43.472;23.936;2023-02-23T14:42:35;4.38;;;2.42;;
41829;SDS011;38614;43.472;23.936;2023-02-23T14:45:30;8.70;;;3.05;;
41829;SDS011;38614;43.472;23.936;2023-02-23T14:48:25;15.30;;;3.92;;
41829;SDS011;38614;43.472;23.936;2023-02-23T14:51:20;6.07;;;2.60;;
41829;SDS011;38614;43.472;23.936;2023-02-23T14:54:33;13.27;;;4.50;;
41829;SDS011;38614;43.472;23.936;2023-02-23T14:57:22;212.18;;;59.38;;
41829;SDS011;38614;43.472;23.936;2023-02-23T15:00:19;70.22;;;20.77;;
41829;SDS011;38614;43.472;23.936;2023-02-23T15:03:09;45.63;;;15.38;;
41829;SDS011;38614;43.472;23.936;2023-02-23T15:06:01;48.72;;;20.10;;
41829;SDS011;38614;43.472;23.936;2023-02-23T15:08:49;51.40;;;21.48;;
41829;SDS011;38614;43.472;23.936;2023-02-23T15:11:36;19.65;;;8.30;;
41829;SDS011;38614;43.472;23.936;2023-02-23T15:14:24;10.60;;;6.40;;
41829;SDS011;38614;43.472;23.936;2023-02-23T15:17:17;12.57;;;4.80;;
41829;SDS011;38614;43.472;23.936;2023-02-23T15:20:09;14.07;;;4.20;;
41829;SDS011;38614;43.472;23.936;2023-02-23T15:23:03;7.53;;;4.25;;
41829;SDS011;38614;43.472;23.936;2023-02-23T15:25:52;9.00;;;3.85;;
41829;SDS011;38614;43.472;23.936;2023-02-23T15:28:39;11.32;;;4.53;;
41829;SDS011;38614;43.472;23.936;2023-02-23T15:31:28;11.25;;;3.15;;
41829;SDS011;38614;43.472;23.936;2023-02-23T15:34:18;14.35;;;4.15;;
41829;SDS011;38614;43.472;23.936;2023-02-23T15:37:28;16.83;;;5.07;;
41829;SDS011;38614;43.472;23.936;2023-02-23T15:40:18;10.07;;;4.28;;
41829;SDS011;38614;43.472;23.936;2023-02-23T15:43:08;13.88;;;5.03;;
41829;SDS011;38614;43.472;23.936;2023-02-23T15:45:58;12.05;;;3.47;;
41829;SDS011;38614;43.472;23.936;2023-02-23T15:48:51;4.97;;;2.72;;
41829;SDS011;38614;43.472;23.936;2023-02-23T15:51:48;8.65;;;3.50;;
41829;SDS011;38614;43.472;23.936;2023-02-23T15:54:44;5.00;;;2.50;;
41829;SDS011;38614;43.472;23.936;2023-02-23T15:57:44;16.13;;;8.75;;
41829;SDS011;38614;43.472;23.936;2023-02-23T16:00:43;15.88;;;7.78;;
41829;SDS011;38614;43.472;23.936;2023-02-23T16:03:40;18.52;;;6.45;;
41829;SDS011;38614;43.472;23.936;2023-02-23T16:06:54;8.93;;;3.63;;
41829;SDS011;38614;43.472;23.936;2023-02-23T16:09:53;13.55;;;7.10;;
41829;SDS011;38614;43.472;23.936;2023-02-23T16:12:52;6.45;;;3.25;;
41829;SDS011;38614;43.472;23.936;2023-02-23T16:15:40;7.68;;;4.05;;
41829;SDS011;38614;43.472;23.936;2023-02-23T16:18:50;9.93;;;4.25;;
41829;SDS011;38614;43.472;23.936;2023-02-23T16:21:40;13.63;;;5.45;;
41829;SDS011;38614;43.472;23.936;2023-02-23T16:24:28;9.32;;;4.68;;
41829;SDS011;38614;43.472;23.936;2023-02-23T16:27:16;8.85;;;2.35;;
41829;SDS011;38614;43.472;23.936;2023-02-23T16:39:02;12.20;;;6.70;;
41829;SDS011;38614;43.472;23.936;2023-02-23T16:41:53;7.90;;;3.40;;
41829;SDS011;38614;43.472;23.936;2023-02-23T16:44:44;12.68;;;3.38;;
41829;SDS011;38614;43.472;23.936;2023-02-23T16:47:41;4.85;;;2.75;;
41829;SDS011;38614;43.472;23.936;2023-02-23T16:50:39;7.53;;;2.85;;
41829;SDS011;38614;43.472;23.936;2023-02-23T16:53:28;10.15;;;2.40;;
41829;SDS011;38614;43.472;23.936;2023-02-23T16:56:16;5.97;;;2.67;;
41829;SDS011;38614;43.472;23.936;2023-02-23T16:59:06;5.93;;;2.85;;
41829;SDS011;38614;43.472;23.936;2023-02-23T17:02:00;6.25;;;3.30;;
41829;SDS011;38614;43.472;23.936;2023-02-23T17:04:48;10.25;;;3.97;;
41829;SDS011;38614;43.472;23.936;2023-02-23T17:07:37;7.05;;;2.78;;
41829;SDS011;38614;43.472;23.936;2023-02-23T17:10:29;4.22;;;2.33;;
41829;SDS011;38614;43.472;23.936;2023-02-23T17:13:20;12.05;;;3.67;;
41829;SDS011;38614;43.472;23.936;2023-02-23T17:16:10;14.73;;;5.55;;
41829;SDS011;38614;43.472;23.936;2023-02-23T17:18:59;19.02;;;6.53;;
41829;SDS011;38614;43.472;23.936;2023-02-23T17:21:51;13.05;;;5.50;;
41829;SDS011;38614;43.472;23.936;2023-02-23T17:24:39;12.38;;;4.20;;
41829;SDS011;38614;43.472;23.936;2023-02-23T17:27:28;5.00;;;2.45;;
41829;SDS011;38614;43.472;23.936;2023-02-23T17:30:16;10.45;;;2.63;;
41829;SDS011;38614;43.472;23.936;2023-02-23T17:33:07;3.42;;;2.35;;
41829;SDS011;38614;43.472;23.936;2023-02-23T17:35:55;9.70;;;2.17;;
41829;SDS011;38614;43.472;23.936;2023-02-23T17:38:46;13.13;;;2.78;;
41829;SDS011;38614;43.472;23.936;2023-02-23T17:41:34;10.23;;;2.50;;
41829;SDS011;38614;43.472;23.936;2023-02-23T17:44:22;5.45;;;2.90;;
41829;SDS011;38614;43.472;23.936;2023-02-23T17:47:10;9.75;;;2.38;;
41829;SDS011;38614;43.472;23.936;2023-02-23T17:50:11;8.63;;;4.13;;
41829;SDS011;38614;43.472;23.936;2023-02-23T17:52:59;10.65;;;4.38;;
41829;SDS011;38614;43.472;23.936;2023-02-23T17:55:47;9.70;;;4.38;;
41829;SDS011;38614;43.472;23.936;2023-02-23T17:58:35;10.57;;;4.28;;
41829;SDS011;38614;43.472;23.936;2023-02-23T18:01:23;8.82;;;4.68;;
41829;SDS011;38614;43.472;23.936;2023-02-23T18:04:11;8.88;;;3.85;;
41829;SDS011;38614;43.472;23.936;2023-02-23T18:06:59;9.73;;;2.97;;
41829;SDS011;38614;43.472;23.936;2023-02-23T18:09:47;5.75;;;3.55;;
41829;SDS011;38614;43.472;23.936;2023-02-23T18:12:36;11.68;;;3.20;;
41829;SDS011;38614;43.472;23.936;2023-02-23T18:15:24;8.30;;;2.35;;
41829;SDS011;38614;43.472;23.936;2023-02-23T18:18:23;9.98;;;2.90;;
41829;SDS011;38614;43.472;23.936;2023-02-23T18:21:15;8.20;;;3.00;;
41829;SDS011;38614;43.472;23.936;2023-02-23T18:24:05;15.32;;;4.43;;
41829;SDS011;38614;43.472;23.936;2023-02-23T18:26:53;3.13;;;1.90;;
41829;SDS011;38614;43.472;23.936;2023-02-23T18:29:46;5.43;;;3.15;;
41829;SDS011;38614;43.472;23.936;2023-02-23T18:32:34;7.25;;;2.25;;
41829;SDS011;38614;43.472;23.936;2023-02-23T18:35:22;10.90;;;2.63;;
41829;SDS011;38614;43.472;23.936;2023-02-23T18:38:10;7.43;;;2.40;;
41829;SDS011;38614;43.472;23.936;2023-02-23T18:41:01;9.57;;;3.92;;
41829;SDS011;38614;43.472;23.936;2023-02-23T18:43:49;10.82;;;3.97;;
41829;SDS011;38614;43.472;23.936;2023-02-23T18:46:38;9.18;;;2.80;;
41829;SDS011;38614;43.472;23.936;2023-02-23T18:49:26;10.80;;;4.60;;
41829;SDS011;38614;43.472;23.936;2023-02-23T18:52:14;5.35;;;2.92;;
41829;SDS011;38614;43.472;23.936;2023-02-23T18:55:03;7.82;;;2.83;;
41829;SDS011;38614;43.472;23.936;2023-02-23T18:57:51;9.52;;;3.33;;
41829;SDS011;38614;43.472;23.936;2023-02-23T19:00:39;11.55;;;4.20;;
41829;SDS011;38614;43.472;23.936;2023-02-23T19:03:28;5.90;;;3.08;;
41829;SDS011;38614;43.472;23.936;2023-02-23T19:06:17;19.25;;;3.83;;
41829;SDS011;38614;43.472;23.936;2023-02-23T19:09:06;9.95;;;3.70;;
41829;SDS011;38614;43.472;23.936;2023-02-23T19:11:58;11.52;;;3.85;;